sensor_id;sensor_type;location;lat;lon;timestamp;temperature;humidity
16980;DHT22;42288;52.182;21.156;2024-01-30T00:01:05;1.70;99.90
16980;DHT22;42288;52.182;21.156;2024-01-30T00:03:30;1.80;99.90
16980;DHT22;42288;52.182;21.156;2024-01-30T00:05:56;1.70;99.90
16980;DHT22;42288;52.182;21.156;2024-01-30T00:08:21;1.80;99.90
16980;DHT22;42288;52.182;21.156;2024-01-30T00:10:47;1.80;99.90
16980;DHT22;42288;52.182;21.156;2024-01-30T00:13:12;1.80;99.90
16980;DHT22;42288;52.182;21.156;2024-01-30T00:15:39;1.70;99.90
16980;DHT22;42288;52.182;21.156;2024-01-30T00:18:05;1.70;99.90
16980;DHT22;42288;52.182;21.156;2024-01-30T00:20:30;1.70;99.90
16980;DHT22;42288;52.182;21.156;2024-01-30T00:22:56;1.60;99.90
16980;DHT22;42288;52.182;21.156;2024-01-30T00:25:21;1.70;99.90
16980;DHT22;42288;52.182;21.156;2024-01-30T00:27:47;1.70;99.90
16980;DHT22;42288;52.182;21.156;2024-01-30T00:30:12;1.70;99.90
16980;DHT22;42288;52.182;21.156;2024-01-30T00:32:38;1.70;99.90
16980;DHT22;42288;52.182;21.156;2024-01-30T00:35:04;1.60;99.90
16980;DHT22;42288;52.182;21.156;2024-01-30T00:37:29;1.60;99.90
16980;DHT22;42288;52.182;21.156;2024-01-30T00:39:58;1.60;99.90
16980;DHT22;42288;52.182;21.156;2024-01-30T00:42:23;1.70;99.90
16980;DHT22;42288;52.182;21.156;2024-01-30T00:44:49;1.70;99.90
16980;DHT22;42288;52.182;21.156;2024-01-30T00:47:15;1.60;99.90
16980;DHT22;42288;52.182;21.156;2024-01-30T00:49:40;1.60;99.90
16980;DHT22;42288;52.182;21.156;2024-01-30T00:52:06;1.70;99.90
16980;DHT22;42288;52.182;21.156;2024-01-30T00:54:31;1.60;99.90
16980;DHT22;42288;52.182;21.156;2024-01-30T00:56:57;1.70;99.90
16980;DHT22;42288;52.182;21.156;2024-01-30T00:59:22;1.70;99.90
16980;DHT22;42288;52.182;21.156;2024-01-30T01:01:48;1.60;99.90
16980;DHT22;42288;52.182;21.156;2024-01-30T01:04:13;1.60;99.90
16980;DHT22;42288;52.182;21.156;2024-01-30T01:06:39;1.70;99.90
16980;DHT22;42288;52.182;21.156;2024-01-30T01:09:07;1.70;99.90
16980;DHT22;42288;52.182;21.156;2024-01-30T01:11:32;1.70;99.90
16980;DHT22;42288;52.182;21.156;2024-01-30T01:13:58;1.60;99.90
16980;DHT22;42288;52.182;21.156;2024-01-30T01:16:23;1.60;99.90
16980;DHT22;42288;52.182;21.156;2024-01-30T01:18:49;1.60;99.90
16980;DHT22;42288;52.182;21.156;2024-01-30T01:21:14;1.60;99.90
16980;DHT22;42288;52.182;21.156;2024-01-30T01:23:40;1.60;99.90
16980;DHT22;42288;52.182;21.156;2024-01-30T01:26:05;1.60;99.90
16980;DHT22;42288;52.182;21.156;2024-01-30T01:28:32;1.60;99.90
16980;DHT22;42288;52.182;21.156;2024-01-30T01:30:58;1.60;99.90
16980;DHT22;42288;52.182;21.156;2024-01-30T01:33:31;1.60;99.90
16980;DHT22;42288;52.182;21.156;2024-01-30T01:35:58;1.60;99.90
16980;DHT22;42288;52.182;21.156;2024-01-30T01:38:23;1.50;99.90
16980;DHT22;42288;52.182;21.156;2024-01-30T01:40:49;1.50;99.90
16980;DHT22;42288;52.182;21.156;2024-01-30T01:43:14;1.50;99.90
16980;DHT22;42288;52.182;21.156;2024-01-30T01:45:40;1.50;99.90
16980;DHT22;42288;52.182;21.156;2024-01-30T01:48:06;1.50;99.90
16980;DHT22;42288;52.182;21.156;2024-01-30T01:50:33;1.50;99.90
16980;DHT22;42288;52.182;21.156;2024-01-30T01:52:59;1.50;99.90
16980;DHT22;42288;52.182;21.156;2024-01-30T01:55:25;1.40;99.90
16980;DHT22;42288;52.182;21.156;2024-01-30T01:57:53;1.40;99.90
16980;DHT22;42288;52.182;21.156;2024-01-30T02:00:19;1.40;99.90
16980;DHT22;42288;52.182;21.156;2024-01-30T02:02:46;1.30;99.90
16980;DHT22;42288;52.182;21.156;2024-01-30T02:05:12;1.30;99.90
16980;DHT22;42288;52.182;21.156;2024-01-30T02:07:38;1.30;99.90
16980;DHT22;42288;52.182;21.156;2024-01-30T02:10:04;1.30;99.90
16980;DHT22;42288;52.182;21.156;2024-01-30T02:12:30;1.30;99.90
16980;DHT22;42288;52.182;21.156;2024-01-30T02:14:56;1.30;99.90
16980;DHT22;42288;52.182;21.156;2024-01-30T02:17:21;1.30;99.90
16980;DHT22;42288;52.182;21.156;2024-01-30T02:19:48;1.40;99.90
16980;DHT22;42288;52.182;21.156;2024-01-30T02:22:14;1.30;99.90
16980;DHT22;42288;52.182;21.156;2024-01-30T02:24:40;1.30;99.90
16980;DHT22;42288;52.182;21.156;2024-01-30T02:27:05;1.30;99.90
16980;DHT22;42288;52.182;21.156;2024-01-30T02:29:31;1.30;99.90
16980;DHT22;42288;52.182;21.156;2024-01-30T02:31:56;1.20;99.90
16980;DHT22;42288;52.182;21.156;2024-01-30T02:34:23;1.20;99.90
16980;DHT22;42288;52.182;21.156;2024-01-30T02:36:48;1.10;99.90
16980;DHT22;42288;52.182;21.156;2024-01-30T02:39:14;1.10;99.90
16980;DHT22;42288;52.182;21.156;2024-01-30T02:41:40;1.20;99.90
16980;DHT22;42288;52.182;21.156;2024-01-30T02:44:05;1.20;99.90
16980;DHT22;42288;52.182;21.156;2024-01-30T02:46:31;1.20;99.90
16980;DHT22;42288;52.182;21.156;2024-01-30T02:48:56;1.20;99.90
16980;DHT22;42288;52.182;21.156;2024-01-30T02:51:22;1.30;99.90
16980;DHT22;42288;52.182;21.156;2024-01-30T02:53:47;1.30;99.90
16980;DHT22;42288;52.182;21.156;2024-01-30T02:56:13;1.30;99.90
16980;DHT22;42288;52.182;21.156;2024-01-30T02:58:39;1.30;99.90
16980;DHT22;42288;52.182;21.156;2024-01-30T03:01:05;1.30;99.90
16980;DHT22;42288;52.182;21.156;2024-01-30T03:03:31;1.20;99.90
16980;DHT22;42288;52.182;21.156;2024-01-30T03:05:56;1.20;99.90
16980;DHT22;42288;52.182;21.156;2024-01-30T03:08:22;1.20;99.90
16980;DHT22;42288;52.182;21.156;2024-01-30T03:10:47;1.20;99.90
16980;DHT22;42288;52.182;21.156;2024-01-30T03:13:13;1.20;99.90
16980;DHT22;42288;52.182;21.156;2024-01-30T03:15:38;1.20;99.90
16980;DHT22;42288;52.182;21.156;2024-01-30T03:18:04;1.10;99.90
16980;DHT22;42288;52.182;21.156;2024-01-30T03:20:30;1.20;99.90
16980;DHT22;42288;52.182;21.156;2024-01-30T03:22:55;1.10;99.90
16980;DHT22;42288;52.182;21.156;2024-01-30T03:25:21;1.10;99.90
16980;DHT22;42288;52.182;21.156;2024-01-30T03:27:47;1.10;99.90
16980;DHT22;42288;52.182;21.156;2024-01-30T03:30:12;1.10;99.90
16980;DHT22;42288;52.182;21.156;2024-01-30T03:32:38;1.10;99.90
16980;DHT22;42288;52.182;21.156;2024-01-30T03:35:04;1.10;99.90
16980;DHT22;42288;52.182;21.156;2024-01-30T03:37:30;1.10;99.90
16980;DHT22;42288;52.182;21.156;2024-01-30T03:39:55;1.10;99.90
16980;DHT22;42288;52.182;21.156;2024-01-30T03:42:21;1.10;99.90
16980;DHT22;42288;52.182;21.156;2024-01-30T03:44:47;1.10;99.90
16980;DHT22;42288;52.182;21.156;2024-01-30T03:47:13;1.10;99.90
16980;DHT22;42288;52.182;21.156;2024-01-30T03:49:39;1.10;99.90
16980;DHT22;42288;52.182;21.156;2024-01-30T03:52:04;1.00;99.90
16980;DHT22;42288;52.182;21.156;2024-01-30T03:54:30;1.00;99.90
16980;DHT22;42288;52.182;21.156;2024-01-30T03:56:55;1.10;99.90
16980;DHT22;42288;52.182;21.156;2024-01-30T03:59:21;1.00;99.90
16980;DHT22;42288;52.182;21.156;2024-01-30T04:01:50;1.10;99.90
16980;DHT22;42288;52.182;21.156;2024-01-30T04:04:17;1.10;99.90
16980;DHT22;42288;52.182;21.156;2024-01-30T04:06:43;1.10;99.90
16980;DHT22;42288;52.182;21.156;2024-01-30T04:09:09;1.00;99.90
16980;DHT22;42288;52.182;21.156;2024-01-30T04:11:34;1.10;99.90
16980;DHT22;42288;52.182;21.156;2024-01-30T04:14:00;1.00;99.90
16980;DHT22;42288;52.182;21.156;2024-01-30T04:16:26;1.00;99.90
16980;DHT22;42288;52.182;21.156;2024-01-30T04:18:52;1.00;99.90
16980;DHT22;42288;52.182;21.156;2024-01-30T04:21:17;1.00;99.90
16980;DHT22;42288;52.182;21.156;2024-01-30T04:23:43;1.00;99.90
16980;DHT22;42288;52.182;21.156;2024-01-30T04:26:09;1.00;99.90
16980;DHT22;42288;52.182;21.156;2024-01-30T04:28:34;1.00;99.90
16980;DHT22;42288;52.182;21.156;2024-01-30T04:31:00;1.00;99.90
16980;DHT22;42288;52.182;21.156;2024-01-30T04:33:25;1.00;99.90
16980;DHT22;42288;52.182;21.156;2024-01-30T04:35:51;0.90;99.90
16980;DHT22;42288;52.182;21.156;2024-01-30T04:38:17;1.00;99.90
16980;DHT22;42288;52.182;21.156;2024-01-30T04:40:42;1.00;99.90
16980;DHT22;42288;52.182;21.156;2024-01-30T04:43:08;1.00;99.90
16980;DHT22;42288;52.182;21.156;2024-01-30T04:45:34;0.90;99.90
16980;DHT22;42288;52.182;21.156;2024-01-30T04:47:59;1.00;99.90
16980;DHT22;42288;52.182;21.156;2024-01-30T04:50:25;1.00;99.90
16980;DHT22;42288;52.182;21.156;2024-01-30T04:52:52;0.90;99.90
16980;DHT22;42288;52.182;21.156;2024-01-30T04:55:17;0.80;99.90
16980;DHT22;42288;52.182;21.156;2024-01-30T04:57:43;0.90;99.90
16980;DHT22;42288;52.182;21.156;2024-01-30T05:00:09;0.90;99.90
16980;DHT22;42288;52.182;21.156;2024-01-30T05:02:35;0.90;99.90
16980;DHT22;42288;52.182;21.156;2024-01-30T05:05:00;0.90;99.90
16980;DHT22;42288;52.182;21.156;2024-01-30T05:07:26;0.90;99.90
16980;DHT22;42288;52.182;21.156;2024-01-30T05:09:51;0.80;99.90
16980;DHT22;42288;52.182;21.156;2024-01-30T05:12:17;0.90;99.90
16980;DHT22;42288;52.182;21.156;2024-01-30T05:14:42;0.90;99.90
16980;DHT22;42288;52.182;21.156;2024-01-30T05:17:08;1.00;99.90
16980;DHT22;42288;52.182;21.156;2024-01-30T05:19:35;0.90;99.90
16980;DHT22;42288;52.182;21.156;2024-01-30T05:22:01;0.90;99.90
16980;DHT22;42288;52.182;21.156;2024-01-30T05:24:26;1.00;99.90
16980;DHT22;42288;52.182;21.156;2024-01-30T05:26:52;0.90;99.90
16980;DHT22;42288;52.182;21.156;2024-01-30T05:29:17;0.90;99.90
16980;DHT22;42288;52.182;21.156;2024-01-30T05:31:43;0.80;99.90
16980;DHT22;42288;52.182;21.156;2024-01-30T05:34:08;0.90;99.90
16980;DHT22;42288;52.182;21.156;2024-01-30T05:36:35;0.90;99.90
16980;DHT22;42288;52.182;21.156;2024-01-30T05:39:00;0.90;99.90
16980;DHT22;42288;52.182;21.156;2024-01-30T05:41:26;0.90;99.90
16980;DHT22;42288;52.182;21.156;2024-01-30T05:43:51;0.80;99.90
16980;DHT22;42288;52.182;21.156;2024-01-30T05:46:17;0.80;99.90
16980;DHT22;42288;52.182;21.156;2024-01-30T05:48:42;0.80;99.90
16980;DHT22;42288;52.182;21.156;2024-01-30T05:51:08;0.80;99.90
16980;DHT22;42288;52.182;21.156;2024-01-30T05:53:34;0.80;99.90
16980;DHT22;42288;52.182;21.156;2024-01-30T05:56:01;0.80;99.90
16980;DHT22;42288;52.182;21.156;2024-01-30T05:58:27;0.80;99.90
16980;DHT22;42288;52.182;21.156;2024-01-30T06:00:58;0.80;99.90
16980;DHT22;42288;52.182;21.156;2024-01-30T06:03:24;0.80;99.90
16980;DHT22;42288;52.182;21.156;2024-01-30T06:05:50;0.80;99.90
16980;DHT22;42288;52.182;21.156;2024-01-30T06:08:15;0.80;99.90
16980;DHT22;42288;52.182;21.156;2024-01-30T06:10:41;0.80;99.90
16980;DHT22;42288;52.182;21.156;2024-01-30T06:13:06;0.80;99.90
16980;DHT22;42288;52.182;21.156;2024-01-30T06:15:32;0.80;99.90
16980;DHT22;42288;52.182;21.156;2024-01-30T06:17:58;0.70;99.90
16980;DHT22;42288;52.182;21.156;2024-01-30T06:20:24;0.70;99.90
16980;DHT22;42288;52.182;21.156;2024-01-30T06:22:50;0.80;99.90
16980;DHT22;42288;52.182;21.156;2024-01-30T06:25:15;0.80;99.90
16980;DHT22;42288;52.182;21.156;2024-01-30T06:27:42;0.80;99.90
16980;DHT22;42288;52.182;21.156;2024-01-30T06:30:08;0.70;99.90
16980;DHT22;42288;52.182;21.156;2024-01-30T06:32:35;0.80;99.90
16980;DHT22;42288;52.182;21.156;2024-01-30T06:35:01;0.80;99.90
16980;DHT22;42288;52.182;21.156;2024-01-30T06:37:27;0.90;99.90
16980;DHT22;42288;52.182;21.156;2024-01-30T06:39:52;0.90;99.90
16980;DHT22;42288;52.182;21.156;2024-01-30T06:42:18;0.90;99.90
16980;DHT22;42288;52.182;21.156;2024-01-30T06:44:44;0.90;99.90
16980;DHT22;42288;52.182;21.156;2024-01-30T06:47:10;0.80;99.90
16980;DHT22;42288;52.182;21.156;2024-01-30T06:49:36;0.90;99.90
16980;DHT22;42288;52.182;21.156;2024-01-30T06:52:05;0.90;99.90
16980;DHT22;42288;52.182;21.156;2024-01-30T06:54:31;0.90;99.90
16980;DHT22;42288;52.182;21.156;2024-01-30T06:56:56;1.00;99.90
16980;DHT22;42288;52.182;21.156;2024-01-30T06:59:22;1.00;99.90
16980;DHT22;42288;52.182;21.156;2024-01-30T07:01:47;1.00;99.90
16980;DHT22;42288;52.182;21.156;2024-01-30T07:04:13;1.10;99.90
16980;DHT22;42288;52.182;21.156;2024-01-30T07:06:39;1.20;99.90
16980;DHT22;42288;52.182;21.156;2024-01-30T07:09:05;1.20;99.90
16980;DHT22;42288;52.182;21.156;2024-01-30T07:11:30;1.30;99.90
16980;DHT22;42288;52.182;21.156;2024-01-30T07:13:56;1.30;99.90
16980;DHT22;42288;52.182;21.156;2024-01-30T07:16:22;1.30;99.90
16980;DHT22;42288;52.182;21.156;2024-01-30T07:18:48;1.30;99.90
16980;DHT22;42288;52.182;21.156;2024-01-30T07:21:14;1.30;99.90
16980;DHT22;42288;52.182;21.156;2024-01-30T07:23:40;1.30;99.90
16980;DHT22;42288;52.182;21.156;2024-01-30T07:26:07;1.40;99.90
16980;DHT22;42288;52.182;21.156;2024-01-30T07:28:33;1.50;99.90
16980;DHT22;42288;52.182;21.156;2024-01-30T07:30:59;1.60;99.90
16980;DHT22;42288;52.182;21.156;2024-01-30T07:33:25;1.70;99.90
16980;DHT22;42288;52.182;21.156;2024-01-30T07:35:52;1.70;99.90
16980;DHT22;42288;52.182;21.156;2024-01-30T07:38:18;1.80;99.90
16980;DHT22;42288;52.182;21.156;2024-01-30T07:40:43;1.90;99.90
16980;DHT22;42288;52.182;21.156;2024-01-30T07:43:09;1.90;99.90
16980;DHT22;42288;52.182;21.156;2024-01-30T07:45:35;2.00;99.90
16980;DHT22;42288;52.182;21.156;2024-01-30T07:48:01;2.10;99.90
16980;DHT22;42288;52.182;21.156;2024-01-30T07:50:27;2.10;99.90
16980;DHT22;42288;52.182;21.156;2024-01-30T07:52:52;2.20;99.90
16980;DHT22;42288;52.182;21.156;2024-01-30T07:55:20;2.30;99.90
16980;DHT22;42288;52.182;21.156;2024-01-30T07:57:51;2.30;99.90
16980;DHT22;42288;52.182;21.156;2024-01-30T08:00:18;2.40;99.90
16980;DHT22;42288;52.182;21.156;2024-01-30T08:02:44;2.40;99.90
16980;DHT22;42288;52.182;21.156;2024-01-30T08:05:09;2.50;99.90
16980;DHT22;42288;52.182;21.156;2024-01-30T08:07:36;2.50;99.90
16980;DHT22;42288;52.182;21.156;2024-01-30T08:10:02;2.60;99.90
16980;DHT22;42288;52.182;21.156;2024-01-30T08:12:28;2.60;99.90
16980;DHT22;42288;52.182;21.156;2024-01-30T08:14:53;2.70;99.90
16980;DHT22;42288;52.182;21.156;2024-01-30T08:17:19;2.80;99.90
16980;DHT22;42288;52.182;21.156;2024-01-30T08:19:44;2.90;99.90
16980;DHT22;42288;52.182;21.156;2024-01-30T08:22:10;2.90;99.90
16980;DHT22;42288;52.182;21.156;2024-01-30T08:24:35;3.00;99.90
16980;DHT22;42288;52.182;21.156;2024-01-30T08:27:01;3.10;99.90
16980;DHT22;42288;52.182;21.156;2024-01-30T08:29:28;3.20;99.90
16980;DHT22;42288;52.182;21.156;2024-01-30T08:31:53;3.30;99.90
16980;DHT22;42288;52.182;21.156;2024-01-30T08:34:21;3.30;99.90
16980;DHT22;42288;52.182;21.156;2024-01-30T08:36:46;3.40;99.90
16980;DHT22;42288;52.182;21.156;2024-01-30T08:39:12;3.40;99.90
16980;DHT22;42288;52.182;21.156;2024-01-30T08:41:37;3.50;99.90
16980;DHT22;42288;52.182;21.156;2024-01-30T08:44:03;3.60;99.90
16980;DHT22;42288;52.182;21.156;2024-01-30T08:46:29;3.60;99.90
16980;DHT22;42288;52.182;21.156;2024-01-30T08:48:56;3.70;99.90
16980;DHT22;42288;52.182;21.156;2024-01-30T08:51:21;3.70;99.90
16980;DHT22;42288;52.182;21.156;2024-01-30T08:53:47;3.80;99.90
16980;DHT22;42288;52.182;21.156;2024-01-30T08:56:13;3.90;99.90
16980;DHT22;42288;52.182;21.156;2024-01-30T08:58:39;3.90;99.90
16980;DHT22;42288;52.182;21.156;2024-01-30T09:01:05;4.10;99.90
16980;DHT22;42288;52.182;21.156;2024-01-30T09:03:31;4.10;99.90
16980;DHT22;42288;52.182;21.156;2024-01-30T09:05:57;4.20;99.90
16980;DHT22;42288;52.182;21.156;2024-01-30T09:08:22;4.30;99.90
16980;DHT22;42288;52.182;21.156;2024-01-30T09:10:48;4.40;99.90
16980;DHT22;42288;52.182;21.156;2024-01-30T09:13:15;4.50;99.90
16980;DHT22;42288;52.182;21.156;2024-01-30T09:15:41;4.60;99.90
16980;DHT22;42288;52.182;21.156;2024-01-30T09:18:07;4.60;99.90
16980;DHT22;42288;52.182;21.156;2024-01-30T09:20:32;4.80;99.90
16980;DHT22;42288;52.182;21.156;2024-01-30T09:22:58;4.90;99.90
16980;DHT22;42288;52.182;21.156;2024-01-30T09:25:23;5.10;99.90
16980;DHT22;42288;52.182;21.156;2024-01-30T09:27:49;5.10;99.90
16980;DHT22;42288;52.182;21.156;2024-01-30T09:30:14;5.20;99.90
16980;DHT22;42288;52.182;21.156;2024-01-30T09:32:40;5.30;99.90
16980;DHT22;42288;52.182;21.156;2024-01-30T09:35:06;5.40;99.90
16980;DHT22;42288;52.182;21.156;2024-01-30T09:37:31;5.50;99.90
16980;DHT22;42288;52.182;21.156;2024-01-30T09:39:57;5.60;99.90
16980;DHT22;42288;52.182;21.156;2024-01-30T09:42:35;5.70;99.90
16980;DHT22;42288;52.182;21.156;2024-01-30T09:45:05;5.90;99.90
16980;DHT22;42288;52.182;21.156;2024-01-30T09:47:32;6.00;99.90
16980;DHT22;42288;52.182;21.156;2024-01-30T09:50:01;6.10;99.90
16980;DHT22;42288;52.182;21.156;2024-01-30T09:52:28;6.20;99.90
16980;DHT22;42288;52.182;21.156;2024-01-30T09:54:53;6.40;99.90
16980;DHT22;42288;52.182;21.156;2024-01-30T09:57:19;6.50;99.90
16980;DHT22;42288;52.182;21.156;2024-01-30T09:59:44;6.70;99.90
16980;DHT22;42288;52.182;21.156;2024-01-30T10:02:10;6.90;99.90
16980;DHT22;42288;52.182;21.156;2024-01-30T10:04:36;7.20;99.90
16980;DHT22;42288;52.182;21.156;2024-01-30T10:07:02;7.40;99.90
16980;DHT22;42288;52.182;21.156;2024-01-30T10:09:28;7.60;99.90
16980;DHT22;42288;52.182;21.156;2024-01-30T10:11:53;8.10;99.90
16980;DHT22;42288;52.182;21.156;2024-01-30T10:14:19;8.30;99.90
16980;DHT22;42288;52.182;21.156;2024-01-30T10:16:46;8.70;99.90
16980;DHT22;42288;52.182;21.156;2024-01-30T10:19:11;8.80;99.90
16980;DHT22;42288;52.182;21.156;2024-01-30T10:21:37;9.20;99.90
16980;DHT22;42288;52.182;21.156;2024-01-30T10:24:03;9.70;99.90
16980;DHT22;42288;52.182;21.156;2024-01-30T10:26:29;9.90;99.90
16980;DHT22;42288;52.182;21.156;2024-01-30T10:28:58;10.20;99.90
16980;DHT22;42288;52.182;21.156;2024-01-30T10:31:23;10.10;99.90
16980;DHT22;42288;52.182;21.156;2024-01-30T10:33:49;10.40;99.90
16980;DHT22;42288;52.182;21.156;2024-01-30T10:36:15;10.90;99.90
16980;DHT22;42288;52.182;21.156;2024-01-30T10:38:42;10.90;99.90
16980;DHT22;42288;52.182;21.156;2024-01-30T10:41:11;11.00;99.90
16980;DHT22;42288;52.182;21.156;2024-01-30T10:43:41;11.40;99.90
16980;DHT22;42288;52.182;21.156;2024-01-30T10:46:19;11.80;99.90
16980;DHT22;42288;52.182;21.156;2024-01-30T10:48:51;12.00;99.90
16980;DHT22;42288;52.182;21.156;2024-01-30T10:51:22;12.20;99.90
16980;DHT22;42288;52.182;21.156;2024-01-30T10:53:49;12.30;99.90
16980;DHT22;42288;52.182;21.156;2024-01-30T10:56:16;12.10;99.70
16980;DHT22;42288;52.182;21.156;2024-01-30T10:58:41;12.30;99.60
16980;DHT22;42288;52.182;21.156;2024-01-30T11:01:07;12.40;99.90
16980;DHT22;42288;52.182;21.156;2024-01-30T11:03:34;12.70;99.40
16980;DHT22;42288;52.182;21.156;2024-01-30T11:06:02;12.70;98.90
16980;DHT22;42288;52.182;21.156;2024-01-30T11:08:31;12.50;97.60
16980;DHT22;42288;52.182;21.156;2024-01-30T11:10:58;12.40;98.50
16980;DHT22;42288;52.182;21.156;2024-01-30T11:13:27;12.80;98.70
16980;DHT22;42288;52.182;21.156;2024-01-30T11:15:54;12.50;97.70
16980;DHT22;42288;52.182;21.156;2024-01-30T11:18:25;12.70;97.00
16980;DHT22;42288;52.182;21.156;2024-01-30T11:20:51;12.40;96.50
16980;DHT22;42288;52.182;21.156;2024-01-30T11:23:17;12.30;97.20
16980;DHT22;42288;52.182;21.156;2024-01-30T11:25:43;11.70;95.80
16980;DHT22;42288;52.182;21.156;2024-01-30T11:28:14;11.50;97.40
16980;DHT22;42288;52.182;21.156;2024-01-30T11:30:44;11.20;96.80
16980;DHT22;42288;52.182;21.156;2024-01-30T11:33:12;10.70;97.00
16980;DHT22;42288;52.182;21.156;2024-01-30T11:35:42;10.80;97.90
16980;DHT22;42288;52.182;21.156;2024-01-30T11:38:10;10.30;96.80
16980;DHT22;42288;52.182;21.156;2024-01-30T11:40:37;10.30;97.70
16980;DHT22;42288;52.182;21.156;2024-01-30T11:43:05;10.20;98.00
16980;DHT22;42288;52.182;21.156;2024-01-30T11:45:31;9.90;98.60
16980;DHT22;42288;52.182;21.156;2024-01-30T11:47:58;9.80;99.30
16980;DHT22;42288;52.182;21.156;2024-01-30T11:50:25;9.80;99.10
16980;DHT22;42288;52.182;21.156;2024-01-30T11:52:51;9.70;99.40
16980;DHT22;42288;52.182;21.156;2024-01-30T11:55:17;9.50;99.20
16980;DHT22;42288;52.182;21.156;2024-01-30T11:57:43;9.40;99.60
16980;DHT22;42288;52.182;21.156;2024-01-30T12:00:17;9.40;99.20
16980;DHT22;42288;52.182;21.156;2024-01-30T12:02:44;9.20;98.90
16980;DHT22;42288;52.182;21.156;2024-01-30T12:05:10;9.20;99.60
16980;DHT22;42288;52.182;21.156;2024-01-30T12:07:36;9.20;99.90
16980;DHT22;42288;52.182;21.156;2024-01-30T12:10:02;9.20;99.90
16980;DHT22;42288;52.182;21.156;2024-01-30T12:12:28;9.20;99.90
16980;DHT22;42288;52.182;21.156;2024-01-30T12:14:56;9.10;99.90
16980;DHT22;42288;52.182;21.156;2024-01-30T12:17:32;9.30;99.50
16980;DHT22;42288;52.182;21.156;2024-01-30T12:20:10;9.90;99.90
16980;DHT22;42288;52.182;21.156;2024-01-30T12:22:40;10.10;98.20
16980;DHT22;42288;52.182;21.156;2024-01-30T12:25:13;10.30;98.40
16980;DHT22;42288;52.182;21.156;2024-01-30T12:27:43;10.50;98.60
16980;DHT22;42288;52.182;21.156;2024-01-30T12:30:13;10.40;97.70
16980;DHT22;42288;52.182;21.156;2024-01-30T12:32:41;10.10;98.10
16980;DHT22;42288;52.182;21.156;2024-01-30T12:35:11;10.20;98.30
16980;DHT22;42288;52.182;21.156;2024-01-30T12:37:37;10.10;98.50
16980;DHT22;42288;52.182;21.156;2024-01-30T12:40:03;10.10;98.40
16980;DHT22;42288;52.182;21.156;2024-01-30T12:42:29;10.10;97.90
16980;DHT22;42288;52.182;21.156;2024-01-30T12:44:57;9.90;98.60
16980;DHT22;42288;52.182;21.156;2024-01-30T12:47:24;9.80;98.50
16980;DHT22;42288;52.182;21.156;2024-01-30T12:49:49;10.10;98.60
16980;DHT22;42288;52.182;21.156;2024-01-30T12:52:19;10.40;98.00
16980;DHT22;42288;52.182;21.156;2024-01-30T12:54:44;10.80;97.80
16980;DHT22;42288;52.182;21.156;2024-01-30T12:57:10;10.90;97.50
16980;DHT22;42288;52.182;21.156;2024-01-30T12:59:35;10.90;96.90
16980;DHT22;42288;52.182;21.156;2024-01-30T13:02:01;11.10;97.20
16980;DHT22;42288;52.182;21.156;2024-01-30T13:04:28;11.40;96.90
16980;DHT22;42288;52.182;21.156;2024-01-30T13:06:54;11.50;96.90
16980;DHT22;42288;52.182;21.156;2024-01-30T13:09:20;11.70;97.20
16980;DHT22;42288;52.182;21.156;2024-01-30T13:11:46;11.60;96.50
16980;DHT22;42288;52.182;21.156;2024-01-30T13:14:12;11.40;96.50
16980;DHT22;42288;52.182;21.156;2024-01-30T13:16:37;11.20;96.60
16980;DHT22;42288;52.182;21.156;2024-01-30T13:19:03;11.00;96.60
16980;DHT22;42288;52.182;21.156;2024-01-30T13:21:29;10.70;97.10
16980;DHT22;42288;52.182;21.156;2024-01-30T13:23:54;10.50;97.60
16980;DHT22;42288;52.182;21.156;2024-01-30T13:26:23;10.50;97.90
16980;DHT22;42288;52.182;21.156;2024-01-30T13:28:48;10.40;98.30
16980;DHT22;42288;52.182;21.156;2024-01-30T13:31:14;10.40;98.80
16980;DHT22;42288;52.182;21.156;2024-01-30T13:33:40;10.30;99.20
16980;DHT22;42288;52.182;21.156;2024-01-30T13:36:07;10.30;98.20
16980;DHT22;42288;52.182;21.156;2024-01-30T13:38:32;10.30;98.40
16980;DHT22;42288;52.182;21.156;2024-01-30T13:40:59;10.30;98.50
16980;DHT22;42288;52.182;21.156;2024-01-30T13:43:24;10.20;97.40
16980;DHT22;42288;52.182;21.156;2024-01-30T13:45:50;10.10;97.50
16980;DHT22;42288;52.182;21.156;2024-01-30T13:48:15;10.10;97.90
16980;DHT22;42288;52.182;21.156;2024-01-30T13:50:41;10.00;98.40
16980;DHT22;42288;52.182;21.156;2024-01-30T13:53:07;9.80;97.70
16980;DHT22;42288;52.182;21.156;2024-01-30T13:55:32;9.80;98.10
16980;DHT22;42288;52.182;21.156;2024-01-30T13:57:58;9.80;98.70
16980;DHT22;42288;52.182;21.156;2024-01-30T14:00:23;9.70;99.10
16980;DHT22;42288;52.182;21.156;2024-01-30T14:02:51;9.60;98.60
16980;DHT22;42288;52.182;21.156;2024-01-30T14:05:16;9.50;99.20
16980;DHT22;42288;52.182;21.156;2024-01-30T14:07:43;9.40;99.70
16980;DHT22;42288;52.182;21.156;2024-01-30T14:10:09;9.30;99.50
16980;DHT22;42288;52.182;21.156;2024-01-30T14:12:36;9.20;99.90
16980;DHT22;42288;52.182;21.156;2024-01-30T14:15:02;9.20;99.90
16980;DHT22;42288;52.182;21.156;2024-01-30T14:17:28;9.10;99.90
16980;DHT22;42288;52.182;21.156;2024-01-30T14:19:53;9.10;99.90
16980;DHT22;42288;52.182;21.156;2024-01-30T14:22:19;9.10;99.90
16980;DHT22;42288;52.182;21.156;2024-01-30T14:24:44;9.00;99.90
16980;DHT22;42288;52.182;21.156;2024-01-30T14:27:10;9.00;99.90
16980;DHT22;42288;52.182;21.156;2024-01-30T14:29:36;8.90;99.90
16980;DHT22;42288;52.182;21.156;2024-01-30T14:32:02;8.90;99.90
16980;DHT22;42288;52.182;21.156;2024-01-30T14:34:27;8.90;99.90
16980;DHT22;42288;52.182;21.156;2024-01-30T14:36:53;8.80;99.90
16980;DHT22;42288;52.182;21.156;2024-01-30T14:39:18;8.70;99.90
16980;DHT22;42288;52.182;21.156;2024-01-30T14:41:44;8.40;99.90
16980;DHT22;42288;52.182;21.156;2024-01-30T14:44:09;8.40;99.90
16980;DHT22;42288;52.182;21.156;2024-01-30T14:46:36;8.30;99.90
16980;DHT22;42288;52.182;21.156;2024-01-30T14:49:03;8.30;99.90
16980;DHT22;42288;52.182;21.156;2024-01-30T14:51:31;8.20;99.90
16980;DHT22;42288;52.182;21.156;2024-01-30T14:53:56;8.20;99.90
16980;DHT22;42288;52.182;21.156;2024-01-30T14:56:22;8.10;99.90
16980;DHT22;42288;52.182;21.156;2024-01-30T14:58:48;8.10;99.90
16980;DHT22;42288;52.182;21.156;2024-01-30T15:01:14;8.00;99.90
16980;DHT22;42288;52.182;21.156;2024-01-30T15:03:39;8.00;99.90
16980;DHT22;42288;52.182;21.156;2024-01-30T15:06:06;7.90;99.90
16980;DHT22;42288;52.182;21.156;2024-01-30T15:08:32;7.90;99.90
16980;DHT22;42288;52.182;21.156;2024-01-30T15:10:58;7.80;99.90
16980;DHT22;42288;52.182;21.156;2024-01-30T15:13:24;7.70;99.90
16980;DHT22;42288;52.182;21.156;2024-01-30T15:15:49;7.70;99.90
16980;DHT22;42288;52.182;21.156;2024-01-30T15:18:15;7.60;99.90
16980;DHT22;42288;52.182;21.156;2024-01-30T15:20:41;7.30;99.90